createdAt,value
2018-06-22T00:02:43.718Z,13.10
2018-06-22T00:05:13.965Z,13.30
2018-06-22T00:07:54.770Z,13.30
2018-06-22T00:10:27.614Z,13.50
2018-06-22T00:15:33.399Z,13.50
2018-06-22T00:18:04.618Z,13.50
2018-06-22T00:20:37.519Z,13.70
2018-06-22T00:23:07.567Z,13.80
2018-06-22T00:25:40.542Z,13.80
2018-06-22T00:28:15.642Z,12.90
2018-06-22T00:30:45.429Z,13.40
2018-06-22T00:33:17.320Z,12.90
2018-06-22T00:35:48.730Z,12.50
2018-06-22T00:38:20.012Z,12.50
2018-06-22T00:40:55.619Z,12.50
2018-06-22T00:43:28.564Z,12.30
2018-06-22T00:46:01.903Z,12.70
2018-06-22T00:48:35.872Z,12.70
2018-06-22T00:51:09.437Z,12.30
2018-06-22T00:53:52.700Z,12.20
2018-06-22T00:58:54.021Z,12.70
2018-06-22T01:01:41.404Z,12.10
2018-06-22T01:04:15.189Z,12.30
2018-06-22T01:06:52.558Z,12.70
2018-06-22T01:09:29.645Z,12.50
2018-06-22T01:12:00.397Z,12.60
2018-06-22T01:14:38.694Z,12.80
2018-06-22T01:17:20.513Z,13.00
2018-06-22T01:19:52.782Z,13.30
2018-06-22T01:22:24.595Z,13.20
2018-06-22T01:24:56.447Z,13.40
2018-06-22T01:27:28.756Z,13.50
2018-06-22T01:30:00.187Z,13.20
2018-06-22T01:32:29.975Z,13.00
2018-06-22T01:35:01.110Z,12.90
2018-06-22T01:37:34.624Z,13.10
2018-06-22T01:40:10.670Z,12.70
2018-06-22T01:42:41.027Z,12.90
2018-06-22T01:45:13.341Z,13.30
2018-06-22T01:47:45.454Z,12.90
2018-06-22T01:50:17.247Z,12.90
2018-06-22T01:52:48.321Z,12.90
2018-06-22T01:55:21.518Z,12.90
2018-06-22T01:57:55.105Z,13.20
2018-06-22T02:00:30.833Z,13.40
2018-06-22T02:03:02.021Z,13.10
2018-06-22T02:05:34.138Z,13.10
2018-06-22T02:08:07.916Z,12.60
2018-06-22T02:10:38.038Z,12.80
2018-06-22T02:13:11.676Z,13.00
2018-06-22T02:15:43.151Z,13.20
2018-06-22T02:18:14.783Z,12.60
2018-06-22T02:20:46.775Z,12.70
2018-06-22T02:23:17.250Z,12.70
2018-06-22T02:25:48.377Z,14.10
2018-06-22T02:28:20.799Z,12.70
2018-06-22T02:30:55.293Z,12.40
2018-06-22T02:33:25.352Z,12.50
2018-06-22T02:35:55.629Z,12.50
2018-06-22T02:38:25.611Z,12.70
2018-06-22T02:40:58.619Z,12.60
2018-06-22T02:43:28.550Z,12.60
2018-06-22T02:45:58.720Z,12.80
2018-06-22T02:48:30.524Z,12.70
2018-06-22T02:51:01.266Z,12.70
2018-06-22T02:53:34.151Z,12.90
2018-06-22T02:56:04.018Z,12.80
2018-06-22T02:58:35.458Z,12.50
2018-06-22T03:01:05.563Z,12.60
2018-06-22T03:03:35.369Z,12.70
2018-06-22T03:06:06.464Z,12.70
2018-06-22T03:08:36.727Z,12.70
2018-06-22T03:11:13.110Z,12.70
2018-06-22T03:13:44.201Z,12.60
2018-06-22T03:16:14.572Z,12.30
2018-06-22T03:18:45.390Z,12.40
2018-06-22T03:21:15.395Z,12.70
2018-06-22T03:23:45.537Z,12.60
2018-06-22T03:26:15.543Z,12.20
2018-06-22T03:31:15.894Z,11.80
2018-06-22T03:33:45.857Z,12.10
2018-06-22T03:36:15.902Z,12.10
2018-06-22T03:38:46.128Z,11.80
2018-06-22T03:41:16.162Z,12.30
2018-06-22T03:43:47.345Z,12.50
2018-06-22T03:46:18.025Z,12.70
2018-06-22T03:48:48.310Z,12.80
2018-06-22T03:51:19.580Z,12.70
2018-06-22T03:53:51.464Z,12.10
2018-06-22T03:56:22.620Z,11.80
2018-06-22T03:58:53.617Z,12.00
2018-06-22T04:01:23.724Z,12.10
2018-06-22T04:03:56.680Z,12.30
2018-06-22T04:06:26.868Z,12.10
2018-06-22T04:52:39.486Z,12.50
2018-06-22T04:55:11.552Z,16.80
2018-06-22T05:00:11.872Z,17.20
2018-06-22T05:02:42.073Z,18.00
2018-06-22T05:10:12.993Z,17.80
2018-06-22T05:12:43.549Z,17.80
2018-06-22T05:15:14.889Z,17.50
2018-06-22T05:17:44.983Z,17.20
2018-06-22T05:20:15.219Z,15.80
2018-06-22T05:22:45.756Z,15.40
2018-06-22T05:25:17.576Z,16.00
2018-06-22T05:30:19.156Z,15.20
2018-06-22T05:32:50.300Z,15.10
2018-06-22T05:35:20.125Z,15.60
2018-06-22T05:40:19.947Z,16.00
2018-06-22T05:42:50.266Z,15.00
2018-06-22T05:45:20.645Z,14.90
2018-06-22T05:47:50.665Z,14.70
2018-06-22T05:50:21.380Z,15.30
2018-06-22T05:52:51.499Z,15.30
2018-06-22T05:55:21.869Z,14.90
2018-06-22T05:57:52.825Z,15.00
2018-06-22T06:00:23.615Z,14.80
2018-06-22T06:02:54.337Z,15.00
2018-06-22T06:05:26.040Z,14.80
2018-06-22T06:07:55.907Z,15.10
2018-06-22T06:10:26.212Z,13.00
2018-06-22T06:12:58.118Z,15.40
2018-06-22T06:15:34.332Z,15.40
2018-06-22T06:23:14.590Z,15.60
2018-06-22T06:25:46.928Z,15.30
2018-06-22T06:28:18.426Z,15.30
2018-06-22T06:30:52.115Z,14.50
2018-06-22T06:33:23.583Z,14.40
2018-06-22T06:36:00.307Z,14.60
2018-06-22T06:38:41.377Z,14.70
2018-06-22T06:41:12.741Z,15.30
2018-06-22T06:43:43.344Z,15.60
2018-06-22T06:46:14.774Z,15.40
2018-06-22T06:48:47.177Z,16.10
2018-06-22T06:53:52.039Z,15.50
2018-06-22T06:56:22.885Z,14.90
2018-06-22T06:58:58.321Z,15.00
2018-06-22T07:01:28.786Z,14.60
2018-06-22T07:04:00.640Z,16.10
2018-06-22T07:06:30.912Z,14.70
2018-06-22T07:09:01.153Z,15.20
2018-06-22T07:11:37.008Z,15.10
2018-06-22T07:14:10.565Z,15.00
2018-06-22T07:19:30.266Z,15.30
2018-06-22T07:22:03.741Z,15.30
2018-06-22T07:24:34.334Z,15.40
2018-06-22T07:27:12.365Z,15.80
2018-06-22T07:29:50.343Z,16.30
2018-06-22T07:32:21.496Z,16.40
2018-06-22T07:34:52.596Z,16.30
2018-06-22T07:37:24.187Z,16.50
2018-06-22T07:44:58.811Z,15.40
2018-06-22T07:47:29.182Z,15.80
2018-06-22T07:50:02.652Z,16.10
2018-06-22T07:52:34.916Z,16.40
2018-06-22T07:57:38.680Z,16.40
2018-06-22T08:00:10.266Z,16.10
2018-06-22T08:02:43.120Z,16.50
2018-06-22T08:05:14.061Z,16.50
2018-06-22T08:07:46.090Z,16.60
2018-06-22T08:10:17.364Z,16.20
2018-06-22T08:12:51.203Z,16.10
2018-06-22T08:15:22.070Z,16.10
2018-06-22T08:17:53.245Z,16.50
2018-06-22T08:20:24.947Z,16.50
2018-06-22T08:22:56.892Z,16.40
2018-06-22T08:25:27.393Z,16.10
2018-06-22T08:27:58.938Z,16.10
2018-06-22T08:30:31.009Z,16.40
2018-06-22T08:33:04.864Z,16.50
2018-06-22T08:35:36.050Z,16.70
2018-06-22T08:38:08.490Z,16.70
2018-06-22T08:40:46.495Z,16.60
2018-06-22T08:43:17.360Z,16.70
2018-06-22T08:45:48.876Z,16.50
2018-06-22T08:48:23.532Z,16.80
2018-06-22T08:50:56.036Z,16.80
2018-06-22T08:53:26.094Z,17.00
2018-06-22T08:55:59.962Z,17.50
2018-06-22T08:58:30.476Z,17.50
2018-06-22T09:01:04.967Z,16.80
2018-06-22T09:03:35.751Z,16.60
2018-06-22T09:06:10.244Z,17.10
2018-06-22T09:08:40.564Z,17.40
2018-06-22T09:11:17.328Z,17.20
2018-06-22T09:13:48.488Z,17.10
2018-06-22T09:16:19.348Z,16.90
2018-06-22T09:18:57.001Z,16.90
2018-06-22T09:21:30.268Z,16.80
2018-06-22T09:24:01.713Z,16.40
2018-06-22T09:26:39.419Z,16.70
2018-06-22T09:29:10.345Z,17.00
2018-06-22T09:31:43.993Z,16.60
2018-06-22T09:34:16.153Z,16.40
2018-06-22T09:36:49.452Z,16.20
2018-06-22T09:39:21.485Z,16.30
2018-06-22T09:41:53.081Z,16.40
2018-06-22T09:44:42.078Z,16.50
2018-06-22T09:47:16.555Z,16.40
2018-06-22T09:52:20.345Z,16.80
2018-06-22T09:54:53.601Z,16.90
2018-06-22T09:57:33.563Z,17.10
2018-06-22T10:00:09.932Z,17.00
2018-06-22T10:02:44.934Z,17.90
2018-06-22T10:05:19.290Z,16.60
2018-06-22T10:07:53.507Z,16.40
2018-06-22T10:10:28.285Z,16.80
2018-06-22T10:13:04.024Z,16.40
2018-06-22T10:18:17.780Z,16.30
2018-06-22T10:20:54.689Z,16.20
2018-06-22T10:23:52.573Z,16.30
2018-06-22T10:26:26.238Z,16.30
2018-06-22T10:31:33.095Z,16.80
2018-06-22T10:34:05.796Z,17.10
2018-06-22T10:39:12.838Z,17.60
2018-06-22T10:41:46.955Z,18.00
2018-06-22T10:44:23.061Z,18.20
2018-06-22T10:49:37.055Z,18.10
2018-06-22T10:52:11.531Z,18.40
2018-06-22T10:54:48.245Z,18.30
2018-06-22T10:57:23.057Z,18.10
2018-06-22T10:59:57.493Z,18.00
2018-06-22T11:02:34.432Z,18.20
2018-06-22T11:05:17.453Z,17.80
2018-06-22T11:07:49.634Z,17.20
2018-06-22T11:10:24.007Z,16.70
2018-06-22T11:13:09.393Z,16.90
2018-06-22T11:15:52.056Z,17.20
2018-06-22T11:18:27.040Z,17.50
2018-06-22T11:21:07.459Z,17.30
2018-06-22T11:23:45.785Z,17.70
2018-06-22T11:26:21.602Z,17.80
2018-06-22T11:29:01.245Z,17.60
2018-06-22T11:31:36.124Z,17.40
2018-06-22T11:34:11.851Z,17.10
2018-06-22T11:36:47.961Z,16.70
2018-06-22T11:39:23.363Z,16.50
2018-06-22T11:42:01.480Z,16.60
2018-06-22T11:44:37.542Z,17.20
2018-06-22T11:47:14.573Z,17.60
2018-06-22T11:52:48.848Z,17.60
2018-06-22T11:55:28.685Z,17.80
2018-06-22T11:58:12.305Z,18.10
2018-06-22T12:00:44.337Z,18.30
2018-06-22T12:03:28.412Z,18.20
2018-06-22T12:06:00.031Z,18.30
2018-06-22T12:08:36.243Z,18.40
2018-06-22T12:11:11.982Z,17.90
2018-06-22T12:13:46.287Z,17.90
2018-06-22T12:16:30.787Z,18.00
2018-06-22T12:19:04.349Z,18.10
2018-06-22T12:21:40.020Z,18.10
2018-06-22T12:24:13.615Z,18.00
2018-06-22T12:26:49.685Z,19.90
2018-06-22T12:29:21.898Z,17.30
2018-06-22T12:31:54.112Z,17.10
2018-06-22T12:34:26.606Z,19.30
2018-06-22T12:36:58.706Z,17.60
2018-06-22T12:39:31.755Z,17.80
2018-06-22T12:42:05.785Z,18.00
2018-06-22T12:44:44.273Z,18.20
2018-06-22T12:47:17.646Z,18.40
2018-06-22T12:49:59.019Z,18.20
2018-06-22T12:52:30.872Z,18.20
2018-06-22T12:55:07.302Z,17.90
2018-06-22T12:57:47.157Z,18.20
2018-06-22T13:00:24.006Z,18.10
2018-06-22T13:02:57.581Z,18.20
2018-06-22T13:05:36.581Z,17.80
2018-06-22T13:08:13.165Z,17.70
2018-06-22T13:10:53.497Z,17.20
2018-06-22T13:13:41.376Z,17.60
2018-06-22T13:16:21.710Z,17.60
2018-06-22T13:18:56.889Z,17.60
2018-06-22T13:21:30.578Z,17.60
2018-06-22T13:24:04.920Z,17.80
2018-06-22T13:26:39.172Z,18.10
2018-06-22T13:29:20.731Z,18.00
2018-06-22T13:31:59.417Z,18.40
2018-06-22T13:34:33.585Z,18.20
2018-06-22T13:37:07.504Z,17.90
2018-06-22T13:39:37.525Z,17.00
2018-06-22T13:42:09.246Z,17.30
2018-06-22T13:44:39.464Z,17.50
2018-06-22T13:47:09.972Z,17.10
2018-06-22T13:49:40.466Z,17.10
2018-06-22T13:52:15.689Z,17.10
2018-06-22T13:54:50.294Z,17.40
2018-06-22T13:57:22.617Z,17.40
2018-06-22T13:59:54.557Z,17.60
2018-06-22T14:02:27.616Z,17.90
2018-06-22T14:05:08.635Z,17.90
2018-06-22T14:07:42.621Z,17.90
2018-06-22T14:10:14.840Z,17.50
2018-06-22T14:12:52.820Z,17.70
2018-06-22T14:15:31.409Z,18.00
2018-06-22T14:18:07.793Z,16.40
2018-06-22T14:20:50.185Z,17.60
2018-06-22T14:24:45.704Z,17.10
2018-06-22T14:27:34.442Z,17.60
2018-06-22T14:30:08.800Z,17.60
2018-06-22T14:32:41.008Z,17.30
2018-06-22T14:38:42.771Z,17.30
2018-06-22T14:41:32.237Z,17.40
2018-06-22T14:44:03.358Z,17.50
2018-06-22T14:46:33.733Z,17.10
2018-06-22T14:49:20.356Z,17.40
2018-06-22T14:51:55.001Z,17.30
2018-06-22T14:54:31.140Z,17.00
2018-06-22T14:57:08.835Z,17.70
2018-06-22T14:59:45.842Z,17.90
2018-06-22T15:02:21.937Z,17.90
2018-06-22T15:04:58.552Z,17.90
2018-06-22T15:07:36.225Z,18.40
2018-06-22T15:10:09.509Z,18.70
2018-06-22T15:12:41.909Z,18.30
2018-06-22T15:15:14.361Z,17.60
2018-06-22T15:17:53.192Z,16.60
2018-06-22T15:20:48.992Z,16.90
2018-06-22T15:23:22.463Z,16.90
2018-06-22T15:25:53.871Z,16.90
2018-06-22T15:28:42.236Z,16.90
2018-06-22T15:31:13.559Z,16.90
2018-06-22T15:33:51.420Z,17.10
2018-06-22T15:36:44.375Z,17.50
2018-06-22T15:39:28.354Z,17.40
2018-06-22T15:42:03.217Z,17.30
2018-06-22T15:44:38.928Z,17.60
2018-06-22T15:47:18.372Z,17.60
2018-06-22T15:49:53.706Z,17.30
2018-06-22T15:52:29.741Z,17.20
2018-06-22T15:55:17.145Z,16.80
2018-06-22T15:57:48.117Z,16.70
2018-06-22T16:00:22.053Z,16.70
2018-06-22T16:02:58.022Z,16.90
2018-06-22T16:05:29.216Z,16.90
2018-06-22T16:08:00.409Z,16.80
2018-06-22T16:10:31.235Z,16.90
2018-06-22T16:13:01.529Z,16.90
2018-06-22T16:15:39.907Z,16.60
2018-06-22T16:18:15.942Z,17.30
2018-06-22T16:25:08.597Z,17.00
2018-06-22T16:27:43.206Z,16.90
2018-06-22T16:30:15.066Z,17.30
2018-06-22T16:32:53.350Z,17.50
2018-06-22T16:35:28.316Z,17.50
2018-06-22T16:38:03.914Z,17.50
2018-06-22T16:40:34.306Z,17.30
2018-06-22T16:43:05.949Z,17.30
2018-06-22T16:45:40.214Z,17.20
2018-06-22T16:48:16.671Z,16.80
2018-06-22T16:50:47.569Z,16.80
2018-06-22T16:53:24.786Z,17.20
2018-06-22T16:55:55.440Z,17.40
2018-06-22T16:58:53.737Z,17.70
2018-06-22T17:01:24.853Z,17.20
2018-06-22T17:03:54.874Z,16.90
2018-06-22T17:06:25.812Z,16.70
2018-06-22T17:09:02.216Z,16.50
2018-06-22T17:11:38.338Z,15.20
2018-06-22T17:14:13.894Z,16.60
2018-06-22T17:19:24.578Z,16.70
2018-06-22T17:22:01.406Z,16.50
2018-06-22T17:24:33.637Z,16.60
2018-06-22T17:29:37.560Z,16.90
2018-06-22T17:32:09.140Z,16.60
2018-06-22T17:34:54.830Z,16.60
2018-06-22T17:37:55.052Z,16.30
2018-06-22T17:40:26.483Z,16.40
2018-06-22T17:42:58.354Z,16.50
2018-06-22T17:45:31.950Z,16.60
2018-06-22T17:48:05.315Z,16.60
2018-06-22T17:50:36.686Z,16.50
2018-06-22T17:53:16.412Z,16.60
2018-06-22T17:55:54.792Z,16.70
2018-06-22T17:58:29.072Z,17.00
2018-06-22T18:01:09.577Z,17.00
2018-06-22T18:03:50.540Z,17.10
2018-06-22T18:06:28.803Z,16.80
2018-06-22T18:09:04.525Z,16.90
2018-06-22T18:11:44.360Z,17.20
2018-06-22T18:14:18.149Z,16.70
2018-06-22T18:16:58.411Z,16.60
2018-06-22T18:19:35.302Z,16.80
2018-06-22T18:22:12.401Z,16.80
2018-06-22T18:24:48.400Z,16.90
2018-06-22T18:27:41.583Z,16.90
2018-06-22T18:30:22.689Z,16.90
2018-06-22T18:32:54.142Z,17.30
2018-06-22T18:35:24.656Z,17.10
2018-06-22T18:38:03.432Z,17.00
2018-06-22T18:43:30.392Z,16.90
2018-06-22T18:46:15.253Z,16.40
2018-06-22T18:48:48.727Z,16.20
2018-06-22T18:51:33.857Z,16.20
2018-06-22T18:54:11.545Z,16.30
2018-06-22T18:56:49.952Z,16.20
2018-06-22T18:59:28.566Z,17.10
2018-06-22T19:02:07.480Z,16.20
2018-06-22T19:04:39.594Z,15.70
2018-06-22T19:07:14.799Z,16.10
2018-06-22T19:09:47.483Z,15.70
2018-06-22T19:12:21.930Z,15.10
2018-06-22T19:14:54.299Z,15.90
2018-06-22T19:17:31.880Z,15.80
2018-06-22T19:20:07.726Z,15.50
2018-06-22T19:22:52.640Z,15.50
2018-06-22T19:25:32.407Z,15.50
2018-06-22T19:28:05.766Z,15.40
2018-06-22T19:30:51.450Z,15.40
2018-06-22T19:33:27.158Z,15.60
2018-06-22T19:36:08.604Z,15.50
2018-06-22T19:38:47.937Z,15.40
2018-06-22T19:41:20.849Z,15.40
2018-06-22T19:43:59.471Z,17.20
2018-06-22T19:46:40.703Z,16.60
2018-06-22T19:49:17.564Z,15.10
2018-06-22T19:51:55.338Z,15.40
2018-06-22T19:54:28.452Z,15.40
2018-06-22T19:57:05.438Z,14.90
2018-06-22T19:59:36.285Z,12.90
2018-06-22T20:02:11.084Z,15.00
2018-06-22T20:04:47.487Z,15.00
2018-06-22T20:07:21.256Z,15.10
2018-06-22T20:09:56.900Z,15.20
2018-06-22T20:12:29.011Z,14.80
2018-06-22T20:15:02.591Z,14.80
2018-06-22T20:17:47.804Z,14.40
2018-06-22T20:20:24.977Z,14.70
2018-06-22T20:22:57.568Z,15.90
2018-06-22T20:25:36.505Z,15.00
2018-06-22T20:28:11.739Z,14.90
2018-06-22T20:30:53.672Z,15.00
2018-06-22T20:33:28.633Z,15.20
2018-06-22T20:36:10.333Z,14.30
2018-06-22T20:38:46.845Z,14.30
2018-06-22T20:41:27.493Z,14.40
2018-06-22T20:44:03.741Z,14.40
2018-06-22T20:46:48.413Z,14.60
2018-06-22T20:49:25.835Z,14.60
2018-06-22T20:52:04.048Z,14.80
2018-06-22T20:54:37.420Z,14.80
2018-06-22T20:57:18.695Z,14.40
2018-06-22T20:59:54.442Z,14.30
2018-06-22T21:02:26.775Z,14.50
2018-06-22T21:05:05.503Z,14.60
2018-06-22T21:07:42.081Z,14.50
2018-06-22T21:10:17.723Z,13.70
2018-06-22T21:12:51.357Z,13.40
2018-06-22T21:15:24.309Z,13.90
2018-06-22T21:20:37.585Z,14.20
2018-06-22T21:23:10.904Z,14.30
2018-06-22T21:25:44.845Z,14.10
2018-06-22T21:28:21.606Z,14.60
2018-06-22T21:30:58.580Z,14.50
2018-06-22T21:33:42.972Z,13.80
2018-06-22T21:36:26.530Z,13.80
2018-06-22T21:39:04.882Z,13.70
2018-06-22T21:41:44.811Z,13.60
2018-06-22T21:44:17.191Z,15.20
2018-06-22T21:46:54.668Z,13.90
2018-06-22T21:49:26.292Z,14.10
2018-06-22T21:51:59.957Z,14.00
2018-06-22T21:54:58.465Z,13.90
2018-06-22T21:57:41.942Z,14.00
2018-06-22T22:00:13.872Z,13.00
2018-06-22T22:02:47.013Z,14.20
2018-06-22T22:05:21.980Z,14.30
2018-06-22T22:07:59.080Z,14.30
2018-06-22T22:10:36.233Z,14.40
2018-06-22T22:13:07.594Z,14.60
2018-06-22T22:15:38.361Z,14.70
2018-06-22T22:18:09.643Z,14.50
2018-06-22T22:20:41.087Z,14.30
2018-06-22T22:23:15.353Z,14.40
2018-06-22T22:25:49.837Z,14.50
2018-06-22T22:28:21.056Z,14.30
2018-06-22T22:30:55.295Z,13.80
2018-06-22T22:33:25.599Z,13.90
2018-06-22T22:36:03.503Z,13.70
2018-06-22T22:55:19.497Z,14.10
2018-06-22T22:57:56.337Z,14.20
2018-06-22T23:00:29.955Z,14.00
2018-06-22T23:03:00.061Z,13.90
2018-06-22T23:05:35.144Z,13.90
2018-06-22T23:08:06.638Z,13.90
2018-06-22T23:10:37.114Z,14.00
2018-06-22T23:13:08.037Z,14.20
2018-06-22T23:15:40.200Z,14.20
2018-06-22T23:18:15.465Z,14.00
2018-06-22T23:20:48.568Z,13.50
2018-06-22T23:23:30.917Z,13.60
2018-06-22T23:26:01.134Z,13.70
2018-06-22T23:28:33.338Z,13.00
2018-06-22T23:31:07.623Z,12.90
2018-06-22T23:33:38.428Z,13.20
2018-06-22T23:36:08.914Z,13.60
2018-06-22T23:38:39.068Z,13.70
2018-06-22T23:41:09.353Z,13.90
2018-06-22T23:43:39.634Z,13.30
2018-06-22T23:46:11.158Z,13.30
2018-06-22T23:48:42.649Z,13.50
2018-06-22T23:51:14.781Z,13.70
2018-06-22T23:53:48.611Z,13.90
2018-06-22T23:56:19.935Z,13.90
2018-06-22T23:58:53.796Z,13.90
